Argo Village, New York
Current Conditions -  °F | °C
As of 6:51 AM on Monday 20 Oct 2014 (Local Time) from KJFK Reporting Station
Broken Clouds Broken Clouds  
Wind Chill: 40°   Ceiling: 26000
Heat Index: 44°   Visibility: 10mi
Dew Point: 30°   Wind: 7mph
Humidity: 58%   Direction: 280°W
Pressure: 30.11"   Gusts: NA
Location:  40.7013°N, 73.7074°W
Report Text: KJFK 201051Z 28006KT 10SM BKN260 07/M01 A3011 RMK AO2 SLP194 T00671011 $
Loading
Personal Weather Stations






























Interactive Weather Map New forecast layout! Learn more

10-Day Weather Forecast

Advertisements
Track Severe Weather on mobile